createdAt,value
2018-03-01T00:00:04.063Z,1015.76
2018-03-01T00:01:04.073Z,1015.67
2018-03-01T00:02:04.104Z,1015.83
2018-03-01T00:03:04.077Z,1015.92
2018-03-01T00:04:04.082Z,1015.98
2018-03-01T00:05:04.088Z,1016.09
2018-03-01T00:06:04.250Z,1015.96
2018-03-01T00:07:04.099Z,1015.91
2018-03-01T00:08:04.099Z,1015.95
2018-03-01T00:09:04.113Z,1016.01
2018-03-01T00:10:04.118Z,1015.96
2018-03-01T00:11:04.133Z,1016.06
2018-03-01T00:12:04.125Z,1016
2018-03-01T00:13:04.144Z,1016.03
2018-03-01T00:14:04.124Z,1016.05
2018-03-01T00:15:04.137Z,1015.99
2018-03-01T00:16:04.138Z,1016.01
2018-03-01T00:17:04.145Z,1016.02
2018-03-01T00:18:04.133Z,1015.96
2018-03-01T00:19:04.151Z,1015.94
2018-03-01T00:20:04.144Z,1015.97
2018-03-01T00:21:04.149Z,1015.93
2018-03-01T00:22:04.188Z,1015.94
2018-03-01T00:23:04.159Z,1015.96
2018-03-01T00:24:04.165Z,1016.04
2018-03-01T00:25:04.170Z,1016
2018-03-01T00:26:04.176Z,1016.03
2018-03-01T00:27:04.195Z,1016
2018-03-01T00:28:04.343Z,1016
2018-03-01T00:29:04.182Z,1015.92
2018-03-01T00:30:04.194Z,1015.98
2018-03-01T00:31:04.194Z,1015.91
2018-03-01T00:32:04.223Z,1015.95
2018-03-01T00:33:04.199Z,1015.88
2018-03-01T00:34:04.198Z,1015.88
2018-03-01T00:35:04.202Z,1015.83
2018-03-01T00:36:04.206Z,1015.84
2018-03-01T00:37:04.201Z,1015.8
2018-03-01T00:38:04.207Z,1015.84
2018-03-01T00:39:04.207Z,1015.85
2018-03-01T00:40:04.220Z,1015.87
2018-03-01T00:41:04.222Z,1015.89
2018-03-01T00:42:04.232Z,1015.91
2018-03-01T00:43:04.238Z,1015.88
2018-03-01T00:44:04.229Z,1015.85
2018-03-01T00:45:04.241Z,1015.82
2018-03-01T00:46:04.245Z,1015.76
2018-03-01T00:47:04.239Z,1015.76
2018-03-01T00:48:05.917Z,1015.7
2018-03-01T00:49:04.262Z,1015.68
2018-03-01T00:50:04.262Z,1015.67
2018-03-01T00:51:04.263Z,1015.57
2018-03-01T00:52:04.261Z,1015.55
2018-03-01T00:53:08.214Z,1015.46
2018-03-01T00:54:04.276Z,1015.42
2018-03-01T00:55:04.273Z,1015.37
2018-03-01T00:56:04.278Z,1015.32
2018-03-01T00:57:04.284Z,1015.36
2018-03-01T00:58:04.287Z,1015.38
2018-03-01T00:59:04.285Z,1015.33
2018-03-01T01:00:04.290Z,1015.31
2018-03-01T01:01:04.293Z,1015.25
2018-03-01T01:02:04.300Z,1015.2
2018-03-01T01:03:04.308Z,1015.14
2018-03-01T01:04:04.313Z,1015.19
2018-03-01T01:05:04.320Z,1015.22
2018-03-01T01:06:04.339Z,1015.2
2018-03-01T01:07:04.315Z,1015.2
2018-03-01T01:08:04.321Z,1015.15
2018-03-01T01:09:04.321Z,1015.03
2018-03-01T01:10:04.328Z,1015.05
2018-03-01T01:11:04.584Z,1015.19
2018-03-01T01:12:04.329Z,1015.06
2018-03-01T01:13:04.332Z,1015.1
2018-03-01T01:14:04.342Z,1015.11
2018-03-01T01:15:04.342Z,1015.08
2018-03-01T01:16:04.359Z,1015.04
2018-03-01T01:17:04.337Z,1014.98
2018-03-01T01:18:04.348Z,1014.95
2018-03-01T01:19:04.351Z,1014.92
2018-03-01T01:20:04.352Z,1014.91
2018-03-01T01:21:04.355Z,1014.92
2018-03-01T01:22:04.361Z,1014.65
2018-03-01T01:23:04.369Z,1014.88
2018-03-01T01:24:04.370Z,1014.86
2018-03-01T01:25:04.367Z,1014.82
2018-03-01T01:26:04.391Z,1014.83
2018-03-01T01:27:04.370Z,1014.87
2018-03-01T01:28:04.367Z,1014.89
2018-03-01T01:29:04.377Z,1014.82
2018-03-01T01:30:04.389Z,1014.77
2018-03-01T01:31:04.697Z,1014.79
2018-03-01T01:32:04.390Z,1014.75
2018-03-01T01:33:04.408Z,1014.77
2018-03-01T01:34:04.393Z,1014.71
2018-03-01T01:35:04.392Z,1014.71
2018-03-01T01:36:04.419Z,1014.68
2018-03-01T01:37:04.400Z,1014.7
2018-03-01T01:38:04.401Z,1014.76
2018-03-01T01:39:04.412Z,1014.68
2018-03-01T01:40:04.413Z,1014.72
2018-03-01T01:41:04.580Z,1014.66
2018-03-01T01:42:04.532Z,1014.66
2018-03-01T01:43:04.429Z,1014.62
2018-03-01T01:44:04.442Z,1014.68
2018-03-01T01:45:04.422Z,1014.65
2018-03-01T01:46:04.433Z,1014.61
2018-03-01T01:47:04.450Z,1014.55
2018-03-01T01:48:04.425Z,1014.55
2018-03-01T01:49:04.433Z,1014.63
2018-03-01T01:50:04.440Z,1014.58
2018-03-01T01:51:04.446Z,1014.59
2018-03-01T01:52:04.452Z,1014.55
2018-03-01T01:53:04.449Z,1014.55
2018-03-01T01:54:04.457Z,1014.61
2018-03-01T01:55:04.471Z,1014.48
2018-03-01T01:56:04.480Z,1014.4
2018-03-01T01:57:04.461Z,1014.45
2018-03-01T01:58:04.484Z,1014.41
2018-03-01T01:59:04.475Z,1014.35
2018-03-01T02:00:04.468Z,1014.33
2018-03-01T02:01:04.466Z,1014.37
2018-03-01T02:02:04.476Z,1014.35
2018-03-01T02:03:04.506Z,1014.4
2018-03-01T02:04:04.489Z,1014.45
2018-03-01T02:05:04.479Z,1014.45
2018-03-01T02:06:04.487Z,1014.35
2018-03-01T02:07:04.495Z,1014.42
2018-03-01T02:08:04.485Z,1014.34
2018-03-01T02:09:04.520Z,1014.33
2018-03-01T02:10:04.488Z,1014.34
2018-03-01T02:11:04.493Z,1014.34
2018-03-01T02:12:04.498Z,1014.28
2018-03-01T02:13:04.509Z,1014.31
2018-03-01T02:14:04.505Z,1014.26
2018-03-01T02:15:04.513Z,1014.3
2018-03-01T02:16:04.531Z,1014.22
2018-03-01T02:17:04.513Z,1014.12
2018-03-01T02:18:04.552Z,1014.21
2018-03-01T02:19:04.532Z,1014.07
2018-03-01T02:20:04.527Z,1014.08
2018-03-01T02:21:04.842Z,1014.04
2018-03-01T02:22:04.562Z,1014.06
2018-03-01T02:23:04.540Z,1014.01
2018-03-01T02:24:04.564Z,1013.93
2018-03-01T02:25:04.600Z,1013.98
2018-03-01T02:26:04.583Z,1013.95
2018-03-01T02:27:04.560Z,1013.96
2018-03-01T02:28:04.558Z,1013.84
2018-03-01T02:29:04.575Z,1013.88
2018-03-01T02:30:04.738Z,1013.86
2018-03-01T02:31:04.601Z,1013.79
2018-03-01T02:32:04.582Z,1013.75
2018-03-01T02:33:04.590Z,1013.72
2018-03-01T02:34:04.591Z,1013.74
2018-03-01T02:35:04.585Z,1013.71
2018-03-01T02:36:11.523Z,1013.68
2018-03-01T02:37:04.592Z,1013.62
2018-03-01T02:38:04.590Z,1013.73
2018-03-01T02:39:04.597Z,1013.66
2018-03-01T02:40:04.595Z,1013.64
2018-03-01T02:41:04.634Z,1013.63
2018-03-01T02:42:04.620Z,1013.58
2018-03-01T02:43:04.625Z,1013.56
2018-03-01T02:44:04.639Z,1013.49
2018-03-01T02:45:04.618Z,1013.49
2018-03-01T02:46:04.625Z,1013.52
2018-03-01T02:47:04.628Z,1013.61
2018-03-01T02:48:04.776Z,1013.62
2018-03-01T02:49:04.668Z,1013.58
2018-03-01T02:50:04.637Z,1013.51
2018-03-01T02:51:04.639Z,1013.56
2018-03-01T02:52:04.643Z,1013.56
2018-03-01T02:53:04.648Z,1013.54
2018-03-01T02:54:04.677Z,1013.5
2018-03-01T02:55:04.655Z,1013.48
2018-03-01T02:56:04.652Z,1013.48
2018-03-01T02:57:04.811Z,1013.43
2018-03-01T02:58:04.662Z,1013.46
2018-03-01T02:59:05.085Z,1013.38
2018-03-01T03:00:04.679Z,1013.46
2018-03-01T03:01:04.717Z,1013.39
2018-03-01T03:02:04.696Z,1013.37
2018-03-01T03:03:04.681Z,1013.31
2018-03-01T03:04:04.711Z,1013.42
2018-03-01T03:05:04.702Z,1013.34
2018-03-01T03:06:04.786Z,1013.32
2018-03-01T03:07:04.698Z,1013.39
2018-03-01T03:08:04.692Z,1013.48
2018-03-01T03:09:04.696Z,1013.44
2018-03-01T03:10:04.745Z,1013.6
2018-03-01T03:11:04.713Z,1013.56
2018-03-01T03:12:04.719Z,1013.68
2018-03-01T03:13:04.717Z,1013.64
2018-03-01T03:14:04.733Z,1013.7
2018-03-01T03:15:04.758Z,1013.78
2018-03-01T03:16:04.740Z,1013.73
2018-03-01T03:17:04.730Z,1013.71
2018-03-01T03:18:04.734Z,1013.7
2018-03-01T03:19:04.747Z,1013.66
2018-03-01T03:20:04.919Z,1013.63
2018-03-01T03:21:04.754Z,1013.67
2018-03-01T03:22:04.743Z,1013.58
2018-03-01T03:23:04.754Z,1013.46
2018-03-01T03:24:04.759Z,1013.63
2018-03-01T03:25:04.759Z,1013.51
2018-03-01T03:26:04.758Z,1013.46
2018-03-01T03:27:04.763Z,1013.31
2018-03-01T03:28:04.776Z,1013.33
2018-03-01T03:29:04.770Z,1013.29
2018-03-01T03:30:04.772Z,1013.29
2018-03-01T03:31:04.784Z,1013.29
2018-03-01T03:32:04.776Z,1013.27
2018-03-01T03:33:04.773Z,1013.24
2018-03-01T03:34:04.772Z,1013.25
2018-03-01T03:35:04.783Z,1013.26
2018-03-01T03:36:04.818Z,1013.19
2018-03-01T03:37:04.786Z,1013.25
2018-03-01T03:38:04.796Z,1013.28
2018-03-01T03:39:04.797Z,1013.24
2018-03-01T03:40:04.797Z,1013.17
2018-03-01T03:41:05.084Z,1013.17
2018-03-01T03:42:04.841Z,1013.2
2018-03-01T03:43:04.806Z,1013.18
2018-03-01T03:44:04.811Z,1013.22
2018-03-01T03:45:04.824Z,1013.02
2018-03-01T03:46:04.838Z,1013.09
2018-03-01T03:47:04.827Z,1013.07
2018-03-01T03:48:04.825Z,1013.07
2018-03-01T03:49:04.828Z,1013.02
2018-03-01T03:50:04.891Z,1013.07
2018-03-01T03:51:04.872Z,1013.14
2018-03-01T03:52:04.857Z,1013.05
2018-03-01T03:53:04.847Z,1013.13
2018-03-01T03:54:04.851Z,1013.08
2018-03-01T03:55:04.854Z,1013.05
2018-03-01T03:56:04.854Z,1013.05
2018-03-01T03:57:04.879Z,1013.07
2018-03-01T03:58:04.861Z,1013.08
2018-03-01T03:59:04.858Z,1013.09
2018-03-01T04:00:04.862Z,1013.1
2018-03-01T04:01:04.871Z,1013.06
2018-03-01T04:02:04.875Z,1013.08
2018-03-01T04:03:05.055Z,1013.07
2018-03-01T04:04:04.893Z,1013.06
2018-03-01T04:05:04.882Z,1013.03
2018-03-01T04:06:04.890Z,1013.05
2018-03-01T04:07:04.884Z,1012.99
2018-03-01T04:08:05.059Z,1013.01
2018-03-01T04:09:04.893Z,1013.03
2018-03-01T04:10:04.904Z,1012.9
2018-03-01T04:11:04.905Z,1012.89
2018-03-01T04:12:05.193Z,1012.93
2018-03-01T04:13:04.911Z,1012.89
2018-03-01T04:14:04.913Z,1012.91
2018-03-01T04:15:04.911Z,1012.93
2018-03-01T04:16:04.916Z,1012.93
2018-03-01T04:17:04.941Z,1012.92
2018-03-01T04:18:04.919Z,1012.89
2018-03-01T04:19:04.932Z,1012.99
2018-03-01T04:20:04.926Z,1012.87
2018-03-01T04:21:04.936Z,1012.83
2018-03-01T04:22:04.938Z,1012.91
2018-03-01T04:23:04.933Z,1012.88
2018-03-01T04:24:04.937Z,1012.88
2018-03-01T04:25:04.932Z,1012.97
2018-03-01T04:26:04.950Z,1012.89
2018-03-01T04:27:04.939Z,1012.88
2018-03-01T04:28:04.979Z,1012.87
2018-03-01T04:29:04.954Z,1012.88
2018-03-01T04:30:04.961Z,1012.8
2018-03-01T04:31:04.982Z,1012.82
2018-03-01T04:32:04.965Z,1012.83
2018-03-01T04:33:05.234Z,1012.81
2018-03-01T04:34:04.995Z,1012.81
2018-03-01T04:35:04.972Z,1012.76
2018-03-01T04:36:05.168Z,1012.79
2018-03-01T04:37:04.982Z,1012.81
2018-03-01T04:38:05.001Z,1012.8
2018-03-01T04:39:04.990Z,1012.74
2018-03-01T04:40:04.989Z,1012.79
2018-03-01T04:41:04.985Z,1012.8
2018-03-01T04:42:04.992Z,1012.76
2018-03-01T04:43:04.999Z,1012.73
2018-03-01T04:44:05.005Z,1012.77
2018-03-01T04:45:05.007Z,1012.78
2018-03-01T04:46:05.003Z,1012.69
2018-03-01T04:47:05.018Z,1012.65
2018-03-01T04:48:05.013Z,1012.71
2018-03-01T04:49:05.270Z,1012.64
2018-03-01T04:50:05.017Z,1012.65
2018-03-01T04:51:05.018Z,1012.65
2018-03-01T04:52:05.023Z,1012.7
2018-03-01T04:53:05.021Z,1012.67
2018-03-01T04:54:05.041Z,1012.58
2018-03-01T04:55:05.026Z,1012.59
2018-03-01T04:56:05.034Z,1012.7
2018-03-01T04:57:05.034Z,1012.73
2018-03-01T04:58:05.113Z,1012.7
2018-03-01T04:59:05.196Z,1012.68
2018-03-01T05:00:05.311Z,1012.68
2018-03-01T05:01:05.045Z,1012.7
2018-03-01T05:02:05.210Z,1012.7
2018-03-01T05:03:05.222Z,1012.67
2018-03-01T05:04:05.187Z,1012.57
2018-03-01T05:05:05.077Z,1012.63
2018-03-01T05:06:05.064Z,1012.59
2018-03-01T05:07:05.070Z,1012.62
2018-03-01T05:08:05.079Z,1012.59
2018-03-01T05:09:05.086Z,1012.6
2018-03-01T05:10:05.240Z,1012.62
2018-03-01T05:11:05.098Z,1012.6
2018-03-01T05:12:05.087Z,1012.52
2018-03-01T05:13:05.082Z,1012.59
2018-03-01T05:14:05.089Z,1012.59
2018-03-01T05:15:05.095Z,1012.57
2018-03-01T05:16:05.753Z,1012.59
2018-03-01T05:17:05.100Z,1012.52
2018-03-01T05:18:05.097Z,1012.58
2018-03-01T05:19:05.099Z,1012.55
2018-03-01T05:20:05.154Z,1012.53
2018-03-01T05:21:05.132Z,1012.62
2018-03-01T05:22:05.108Z,1012.56
2018-03-01T05:23:05.139Z,1012.54
2018-03-01T05:24:05.145Z,1012.6
2018-03-01T05:25:05.126Z,1012.59
2018-03-01T05:26:05.116Z,1012.56
2018-03-01T05:27:05.109Z,1012.65
2018-03-01T05:28:05.130Z,1012.69
2018-03-01T05:29:05.122Z,1012.62
2018-03-01T05:30:05.115Z,1012.63
2018-03-01T05:31:05.122Z,1012.6
2018-03-01T05:32:05.118Z,1012.58
2018-03-01T05:33:05.108Z,1012.66
2018-03-01T05:34:05.129Z,1012.62
2018-03-01T05:35:05.141Z,1012.62
2018-03-01T05:36:05.122Z,1012.63
2018-03-01T05:37:05.128Z,1012.65
2018-03-01T05:38:05.135Z,1012.64
2018-03-01T05:39:05.126Z,1012.59
2018-03-01T05:40:05.150Z,1012.56
2018-03-01T05:41:05.130Z,1012.5
2018-03-01T05:42:05.131Z,1012.53
2018-03-01T05:43:05.136Z,1012.56
2018-03-01T05:44:05.145Z,1012.53
2018-03-01T05:45:05.169Z,1012.48
2018-03-01T05:46:05.174Z,1012.47
2018-03-01T05:47:05.160Z,1012.51
2018-03-01T05:48:05.167Z,1012.49
2018-03-01T05:49:05.197Z,1012.5
2018-03-01T05:50:05.182Z,1012.47
2018-03-01T05:51:05.160Z,1012.49
2018-03-01T05:52:05.168Z,1012.44
2018-03-01T05:53:05.174Z,1012.44
2018-03-01T05:54:05.165Z,1012.42
2018-03-01T05:55:05.271Z,1012.41
2018-03-01T05:56:05.177Z,1012.4
2018-03-01T05:57:05.183Z,1012.34
2018-03-01T05:58:05.181Z,1012.31
2018-03-01T05:59:05.185Z,1012.26
2018-03-01T06:00:05.182Z,1012.26
2018-03-01T06:01:05.214Z,1012.25
2018-03-01T06:02:05.203Z,1012.27
2018-03-01T06:03:05.206Z,1012.32
2018-03-01T06:04:05.211Z,1012.25
2018-03-01T06:05:05.214Z,1012.28
2018-03-01T06:06:05.218Z,1012.28
2018-03-01T06:07:05.214Z,1012.26
2018-03-01T06:08:05.223Z,1012.19
2018-03-01T06:09:05.225Z,1012.18
2018-03-01T06:10:05.236Z,1012.18
2018-03-01T06:11:05.239Z,1012.26
2018-03-01T06:12:05.232Z,1012.17
2018-03-01T06:13:05.233Z,1012.22
2018-03-01T06:14:05.239Z,1012.23
2018-03-01T06:15:05.250Z,1012.21
2018-03-01T06:16:05.256Z,1012.3
2018-03-01T06:17:05.248Z,1012.26
2018-03-01T06:18:05.245Z,1012.26
2018-03-01T06:19:05.263Z,1012.17
2018-03-01T06:20:05.258Z,1012.22
2018-03-01T06:21:05.287Z,1012.23
2018-03-01T06:22:05.333Z,1012.21
2018-03-01T06:23:05.264Z,1012.18
2018-03-01T06:24:05.312Z,1012.18
2018-03-01T06:25:05.268Z,1012.19
2018-03-01T06:26:05.288Z,1012.14
2018-03-01T06:27:05.290Z,1012.11
2018-03-01T06:28:05.280Z,1012.07
2018-03-01T06:29:05.284Z,1012.11
2018-03-01T06:30:05.524Z,1012.1
2018-03-01T06:31:05.434Z,1012.08
2018-03-01T06:32:05.284Z,1012.05
2018-03-01T06:33:05.442Z,1011.96
2018-03-01T06:34:05.295Z,1012.01
2018-03-01T06:35:05.311Z,1012.04
2018-03-01T06:36:05.334Z,1011.99
2018-03-01T06:37:05.419Z,1011.95
2018-03-01T06:38:05.300Z,1011.98
2018-03-01T06:39:05.342Z,1012.01
2018-03-01T06:40:05.306Z,1011.96
2018-03-01T06:41:05.313Z,1011.98
2018-03-01T06:42:05.300Z,1012
2018-03-01T06:43:05.300Z,1011.99
2018-03-01T06:44:05.344Z,1011.98
2018-03-01T06:45:05.324Z,1012
2018-03-01T06:46:05.315Z,1011.97
2018-03-01T06:47:05.330Z,1012.01
2018-03-01T06:48:05.324Z,1012.02
2018-03-01T06:49:05.633Z,1011.9
2018-03-01T06:50:05.337Z,1012.04
2018-03-01T06:51:05.328Z,1012.02
2018-03-01T06:52:05.337Z,1012.06
2018-03-01T06:53:05.355Z,1012.07
2018-03-01T06:54:05.364Z,1011.98
2018-03-01T06:55:05.344Z,1012.04
2018-03-01T06:56:05.342Z,1012.05
2018-03-01T06:57:05.340Z,1012.02
2018-03-01T06:58:05.340Z,1012.09
2018-03-01T06:59:05.439Z,1012.07
2018-03-01T07:00:05.378Z,1012.12
2018-03-01T07:01:05.358Z,1012.1
2018-03-01T07:02:05.355Z,1012.09
2018-03-01T07:03:05.368Z,1012.23
2018-03-01T07:04:05.365Z,1012.12
2018-03-01T07:05:05.395Z,1012.17
2018-03-01T07:06:05.378Z,1012.13
2018-03-01T07:07:05.416Z,1012.13
2018-03-01T07:08:05.393Z,1012.17
2018-03-01T07:09:05.385Z,1012.16
2018-03-01T07:10:05.568Z,1012.15
2018-03-01T07:11:05.457Z,1012.18
2018-03-01T07:12:05.411Z,1012.14
2018-03-01T07:13:05.427Z,1012.12
2018-03-01T07:14:05.409Z,1012.15
2018-03-01T07:15:05.494Z,1012.1
2018-03-01T07:16:05.427Z,1012.09
2018-03-01T07:17:05.419Z,1012.17
2018-03-01T07:18:05.448Z,1012.09
2018-03-01T07:19:05.429Z,1012.13
2018-03-01T07:20:05.575Z,1012.14
2018-03-01T07:21:05.444Z,1012.12
2018-03-01T07:22:05.424Z,1012.11
2018-03-01T07:23:05.431Z,1012.12
2018-03-01T07:24:05.435Z,1012.1
2018-03-01T07:25:05.583Z,1012.08
2018-03-01T07:26:05.433Z,1012.09
2018-03-01T07:27:05.466Z,1012.11
2018-03-01T07:28:05.430Z,1012.07
2018-03-01T07:29:05.438Z,1011.99
2018-03-01T07:30:05.445Z,1012.03
2018-03-01T07:31:05.437Z,1012.06
2018-03-01T07:32:05.459Z,1011.99
2018-03-01T07:33:05.451Z,1012.01
2018-03-01T07:34:05.447Z,1012.01
2018-03-01T07:35:05.450Z,1012
2018-03-01T07:36:05.478Z,1012.04
2018-03-01T07:37:05.533Z,1012.06
2018-03-01T07:38:05.474Z,1011.98
2018-03-01T07:39:05.520Z,1011.96
2018-03-01T07:40:05.467Z,1011.91
2018-03-01T07:41:05.521Z,1011.91
2018-03-01T07:42:05.475Z,1011.83
2018-03-01T07:43:05.628Z,1011.88
2018-03-01T07:44:05.470Z,1011.84
2018-03-01T07:45:05.492Z,1011.78
2018-03-01T07:46:05.518Z,1011.79
2018-03-01T07:47:05.493Z,1011.73
2018-03-01T07:48:05.494Z,1011.81
2018-03-01T07:49:05.494Z,1011.72
2018-03-01T07:50:05.492Z,1011.76
2018-03-01T07:51:05.566Z,1011.7
2018-03-01T07:52:05.505Z,1011.65
2018-03-01T07:53:05.498Z,1011.69
2018-03-01T07:54:05.518Z,1011.61
2018-03-01T07:55:05.507Z,1011.62
2018-03-01T07:56:05.505Z,1011.7
2018-03-01T07:57:05.529Z,1011.64
2018-03-01T07:58:05.531Z,1011.69
2018-03-01T07:59:05.510Z,1011.59
2018-03-01T08:00:05.506Z,1011.62
2018-03-01T08:01:05.537Z,1011.58
2018-03-01T08:02:05.573Z,1011.59
2018-03-01T08:03:05.516Z,1011.56
2018-03-01T08:04:05.621Z,1011.65
2018-03-01T08:05:05.530Z,1011.52
2018-03-01T08:06:05.634Z,1011.58
2018-03-01T08:07:05.550Z,1011.58
2018-03-01T08:08:05.531Z,1011.63
2018-03-01T08:09:05.534Z,1011.58
2018-03-01T08:10:05.536Z,1011.5
2018-03-01T08:11:05.562Z,1011.49
2018-03-01T08:12:05.814Z,1011.52
2018-03-01T08:13:05.548Z,1011.47
2018-03-01T08:14:05.549Z,1011.54
2018-03-01T08:15:05.541Z,1011.54
2018-03-01T08:16:05.549Z,1011.55
2018-03-01T08:17:05.591Z,1011.59
2018-03-01T08:18:05.552Z,1011.62
2018-03-01T08:19:05.601Z,1011.59
2018-03-01T08:20:05.568Z,1011.54
2018-03-01T08:21:05.566Z,1011.59
2018-03-01T08:22:05.574Z,1011.54
2018-03-01T08:23:05.594Z,1011.53
2018-03-01T08:24:05.596Z,1011.52
2018-03-01T08:25:05.591Z,1011.54
2018-03-01T08:26:05.587Z,1011.53
2018-03-01T08:27:05.597Z,1011.48
2018-03-01T08:28:05.583Z,1011.53
2018-03-01T08:29:05.868Z,1011.48
2018-03-01T08:30:05.612Z,1011.42
2018-03-01T08:31:05.613Z,1011.42
2018-03-01T08:32:05.607Z,1011.39
2018-03-01T08:33:05.603Z,1011.33
2018-03-01T08:34:05.642Z,1011.41
2018-03-01T08:35:05.625Z,1011.31
2018-03-01T08:36:05.625Z,1011.35
2018-03-01T08:37:05.616Z,1011.31
2018-03-01T08:38:05.624Z,1011.34
2018-03-01T08:39:05.810Z,1011.34
2018-03-01T08:40:05.636Z,1011.21
2018-03-01T08:41:05.647Z,1011.27
2018-03-01T08:42:05.650Z,1011.27
2018-03-01T08:43:05.645Z,1011.23
2018-03-01T08:44:05.669Z,1011.33
2018-03-01T08:45:05.682Z,1011.31
2018-03-01T08:46:05.653Z,1011.32
2018-03-01T08:47:05.830Z,1011.32
2018-03-01T08:48:05.656Z,1011.37
2018-03-01T08:49:05.963Z,1011.33
2018-03-01T08:50:05.666Z,1011.4
2018-03-01T08:51:05.672Z,1011.32
2018-03-01T08:52:05.700Z,1011.37
2018-03-01T08:53:05.686Z,1011.4
2018-03-01T08:54:05.698Z,1011.33
2018-03-01T08:55:05.685Z,1011.24
2018-03-01T08:56:05.687Z,1011.29
2018-03-01T08:57:05.688Z,1011.27
2018-03-01T08:58:05.702Z,1011.3
2018-03-01T08:59:05.716Z,1011.25
2018-03-01T09:00:05.714Z,1011.22
2018-03-01T09:01:05.728Z,1011.26
2018-03-01T09:02:05.702Z,1011.31
2018-03-01T09:03:05.713Z,1011.31
2018-03-01T09:04:05.745Z,1011.21
2018-03-01T09:05:06.009Z,1011.2
2018-03-01T09:06:05.709Z,1011.12
2018-03-01T09:07:05.714Z,1011.22
2018-03-01T09:08:05.729Z,1011.13
2018-03-01T09:09:05.720Z,1011.12
2018-03-01T09:10:05.738Z,1011.05
2018-03-01T09:11:05.740Z,1011.01
2018-03-01T09:12:05.728Z,1011.07
2018-03-01T09:13:05.725Z,1011.05
2018-03-01T09:14:05.735Z,1010.88
2018-03-01T09:15:05.758Z,1010.89
2018-03-01T09:16:05.761Z,1010.86
2018-03-01T09:17:05.794Z,1010.88
2018-03-01T09:18:05.740Z,1010.9
2018-03-01T09:19:05.746Z,1010.88
2018-03-01T09:20:05.748Z,1010.93
2018-03-01T09:21:05.788Z,1010.82
2018-03-01T09:22:05.761Z,1010.88
2018-03-01T09:23:05.767Z,1010.84
2018-03-01T09:24:05.779Z,1010.73
2018-03-01T09:25:05.785Z,1010.75
2018-03-01T09:26:06.045Z,1010.79
2018-03-01T09:27:05.784Z,1010.66
2018-03-01T09:28:05.794Z,1010.69
2018-03-01T09:29:05.813Z,1010.72
2018-03-01T09:30:05.862Z,1010.66
2018-03-01T09:31:05.814Z,1010.64
2018-03-01T09:32:05.810Z,1010.68
2018-03-01T09:33:05.789Z,1010.62
2018-03-01T09:34:05.794Z,1010.6
2018-03-01T09:35:05.806Z,1010.59
2018-03-01T09:36:05.843Z,1010.54
2018-03-01T09:37:05.810Z,1010.59
2018-03-01T09:38:05.857Z,1010.55
2018-03-01T09:39:05.824Z,1010.56
2018-03-01T09:40:05.819Z,1010.5
2018-03-01T09:41:05.842Z,1010.43
2018-03-01T09:42:05.829Z,1010.46
2018-03-01T09:43:05.840Z,1010.42
2018-03-01T09:44:05.844Z,1010.43
2018-03-01T09:45:05.841Z,1010.45
2018-03-01T09:46:05.902Z,1010.42
2018-03-01T09:47:05.829Z,1010.37
2018-03-01T09:48:05.839Z,1010.42
2018-03-01T09:49:05.845Z,1010.32
2018-03-01T09:50:05.865Z,1010.38
2018-03-01T09:51:05.859Z,1010.26
2018-03-01T09:52:05.854Z,1010.39
2018-03-01T09:53:05.860Z,1010.25
2018-03-01T09:54:05.868Z,1010.21
2018-03-01T09:55:05.878Z,1010.2
2018-03-01T09:56:05.882Z,1010.23
2018-03-01T09:57:05.901Z,1010.25
2018-03-01T09:58:05.890Z,1010.25
2018-03-01T09:59:05.888Z,1010.24
2018-03-01T10:00:05.899Z,1010.25
2018-03-01T10:01:05.897Z,1010.15
2018-03-01T10:02:05.923Z,1010.21
2018-03-01T10:03:05.908Z,1010.17
2018-03-01T10:04:05.904Z,1010.18
2018-03-01T10:05:06.021Z,1010.16
2018-03-01T10:06:05.909Z,1010.15
2018-03-01T10:07:05.992Z,1010.06
2018-03-01T10:08:05.915Z,1010.09
2018-03-01T10:09:05.924Z,1010.13
2018-03-01T10:10:05.928Z,1010.16
2018-03-01T10:11:05.938Z,1010.17
2018-03-01T10:12:05.935Z,1010.16
2018-03-01T10:13:05.958Z,1010.16
2018-03-01T10:14:05.935Z,1010.16
2018-03-01T10:15:06.099Z,1010.14
2018-03-01T10:16:05.940Z,1010.13
2018-03-01T10:17:05.945Z,1010.09
2018-03-01T10:18:06.049Z,1010.05
2018-03-01T10:19:05.945Z,1010.02
2018-03-01T10:20:05.938Z,1010.03
2018-03-01T10:21:05.949Z,1010.01
2018-03-01T10:22:05.951Z,1010.01
2018-03-01T10:23:06.235Z,1009.98
2018-03-01T10:24:05.970Z,1010.03
2018-03-01T10:25:05.965Z,1010.05
2018-03-01T10:26:05.963Z,1010.09
2018-03-01T10:27:05.978Z,1010.1
2018-03-01T10:28:05.998Z,1010.04
2018-03-01T10:29:05.985Z,1010.02
2018-03-01T10:30:05.993Z,1009.99
2018-03-01T10:31:05.988Z,1009.95
2018-03-01T10:32:05.991Z,1009.99
2018-03-01T10:33:06.252Z,1009.98
2018-03-01T10:34:05.994Z,1009.93
2018-03-01T10:35:06.010Z,1009.96
2018-03-01T10:36:06.000Z,1009.92
2018-03-01T10:37:06.009Z,1009.97
2018-03-01T10:38:06.017Z,1009.92
2018-03-01T10:39:06.052Z,1009.94
2018-03-01T10:40:06.005Z,1009.98
2018-03-01T10:41:06.011Z,1009.94
2018-03-01T10:42:06.019Z,1009.97
2018-03-01T10:43:06.049Z,1009.9
2018-03-01T10:44:06.019Z,1009.89
2018-03-01T10:45:06.026Z,1009.9
2018-03-01T10:46:06.020Z,1009.89
2018-03-01T10:47:06.014Z,1009.91
2018-03-01T10:48:06.031Z,1009.93
2018-03-01T10:49:06.032Z,1009.95
2018-03-01T10:50:06.035Z,1009.91
2018-03-01T10:51:06.042Z,1009.98
2018-03-01T10:52:06.043Z,1009.97
2018-03-01T10:53:06.039Z,1009.88
2018-03-01T10:54:06.044Z,1009.87
2018-03-01T10:55:06.065Z,1009.81
2018-03-01T10:56:06.056Z,1009.75
2018-03-01T10:57:06.067Z,1009.69
2018-03-01T10:58:06.074Z,1009.7
2018-03-01T10:59:06.076Z,1009.69
2018-03-01T11:00:06.072Z,1009.68
2018-03-01T11:01:06.073Z,1009.63
2018-03-01T11:02:06.071Z,1009.59
2018-03-01T11:03:06.091Z,1009.66
2018-03-01T11:04:06.080Z,1009.66
2018-03-01T11:05:06.082Z,1009.61
2018-03-01T11:06:06.088Z,1009.65
2018-03-01T11:07:06.082Z,1009.62
2018-03-01T11:08:06.091Z,1009.57
2018-03-01T11:09:06.093Z,1009.53
2018-03-01T11:10:06.362Z,1009.51
2018-03-01T11:11:06.089Z,1009.44
2018-03-01T11:12:06.154Z,1009.49
2018-03-01T11:13:06.102Z,1009.49
2018-03-01T11:14:06.118Z,1009.48
2018-03-01T11:15:06.139Z,1009.45
2018-03-01T11:16:06.120Z,1009.39
2018-03-01T11:17:06.110Z,1009.37
2018-03-01T11:20:12.408Z,1009.38
2018-03-01T11:21:06.266Z,1009.37
2018-03-01T11:22:06.193Z,1009.44
2018-03-01T11:23:06.124Z,1009.36
2018-03-01T11:24:06.291Z,1009.28
2018-03-01T11:25:06.297Z,1009.31
2018-03-01T11:26:06.173Z,1009.32
2018-03-01T11:27:06.320Z,1009.35
2018-03-01T11:28:06.151Z,1009.26
2018-03-01T11:29:06.152Z,1009.22
2018-03-01T11:30:06.156Z,1009.28
2018-03-01T11:31:06.160Z,1009.2
2018-03-01T11:32:06.178Z,1009.24
2018-03-01T11:33:06.154Z,1009.1
2018-03-01T11:34:06.202Z,1009.08
2018-03-01T11:35:06.242Z,1009.05
2018-03-01T11:36:06.157Z,1009
2018-03-01T11:37:06.172Z,1008.99
2018-03-01T11:38:06.162Z,1008.89
2018-03-01T11:39:06.181Z,1008.91
2018-03-01T11:40:06.214Z,1008.86
2018-03-01T11:41:06.169Z,1008.83
2018-03-01T11:42:06.175Z,1008.91
2018-03-01T11:43:06.173Z,1008.86
2018-03-01T11:44:06.224Z,1008.85
2018-03-01T11:45:06.188Z,1008.84
2018-03-01T11:46:06.189Z,1008.76
2018-03-01T11:47:06.197Z,1008.73
2018-03-01T11:48:06.205Z,1008.78
2018-03-01T11:49:06.255Z,1008.85
2018-03-01T11:50:06.211Z,1008.79
2018-03-01T11:51:06.215Z,1008.78
2018-03-01T11:52:06.226Z,1008.8
2018-03-01T11:53:06.219Z,1008.74
2018-03-01T11:54:06.240Z,1008.7
2018-03-01T11:55:06.211Z,1008.65
2018-03-01T11:56:06.221Z,1008.68
2018-03-01T11:57:06.227Z,1008.63
2018-03-01T11:58:06.235Z,1008.55
2018-03-01T11:59:06.263Z,1008.51
2018-03-01T12:00:06.264Z,1008.44
2018-03-01T12:01:06.253Z,1008.48
2018-03-01T12:02:06.244Z,1008.44
2018-03-01T12:03:06.238Z,1008.41
2018-03-01T12:04:06.245Z,1008.39
2018-03-01T12:05:06.248Z,1008.39
2018-03-01T12:06:06.299Z,1008.34
2018-03-01T12:07:06.244Z,1008.3
2018-03-01T12:08:06.248Z,1008.28
2018-03-01T12:09:06.254Z,1008.29
2018-03-01T12:10:06.249Z,1008.22